Flight Briefing for CPX440

Departure Arrival
Chicago/Rockford International Airport (KRFD)
Click to view FAA NOTAMS
Salt Lake City International Airport (KSLC)
Click to view FAA NOTAMS
Departure Time Arrival Time
N/A N/A
Aircraft Distance
B757-200SF 1031nm
Departure METAR Arrival METAR
KRFD 221154Z 34005KT 10SM CLR 01/M02 A3005 RMK AO2 SLP182 T00061017 10039 20006 53024 KSLC 221154Z 18009KT 10SM FEW060 BKN070 BKN090 07/01 A2994 RMK AO2 SLP120 70021 T00720011 10072 20067 55002 $
Suggested Route
RFD COTON J128 DBQ ALO FOD DDY NORDK6


View recent IFR Routes data
Notes



Charts and Procedures

Charts for KRFD
No chart available
Charts for KSLC
No chart available

Windy.com Weather Map